createdAt,value
2023-05-23T00:02:23.479Z,60.95
2023-05-23T00:05:09.274Z,61.29
2023-05-23T00:07:55.120Z,61.25
2023-05-23T00:10:41.159Z,60.94
2023-05-23T00:13:28.321Z,61.23
2023-05-23T00:16:13.512Z,61.51
2023-05-23T00:18:59.386Z,61.73
2023-05-23T00:21:50.971Z,62.29
2023-05-23T00:24:36.757Z,62.50
2023-05-23T00:27:22.134Z,62.68
2023-05-23T00:30:07.939Z,62.57
2023-05-23T00:32:54.531Z,62.58
2023-05-23T00:35:41.450Z,62.61
2023-05-23T00:38:28.551Z,62.96
2023-05-23T00:41:14.045Z,62.69
2023-05-23T00:44:00.037Z,62.37
2023-05-23T00:46:50.268Z,62.42
2023-05-23T00:49:36.143Z,62.35
2023-05-23T00:52:22.162Z,61.96
2023-05-23T00:55:08.640Z,61.99
2023-05-23T00:57:58.114Z,62.11
2023-05-23T01:00:45.196Z,62.21
2023-05-23T01:03:30.674Z,62.13
2023-05-23T01:06:17.642Z,61.97
2023-05-23T01:09:03.680Z,62.14
2023-05-23T01:12:01.540Z,62.64
2023-05-23T01:15:04.426Z,62.33
2023-05-23T01:18:15.151Z,62.42
2023-05-23T01:21:07.246Z,62.76
2023-05-23T01:24:30.106Z,62.25
2023-05-23T01:27:50.509Z,62.65
2023-05-23T01:30:40.791Z,62.26
2023-05-23T01:33:28.429Z,62.45
2023-05-23T01:36:15.233Z,62.47
2023-05-23T01:39:01.216Z,62.74
2023-05-23T01:41:48.612Z,62.97
2023-05-23T01:44:35.330Z,62.86
2023-05-23T01:47:21.680Z,62.64
2023-05-23T01:50:10.626Z,63.18
2023-05-23T01:52:57.054Z,62.99
2023-05-23T01:55:43.000Z,63.53
2023-05-23T01:58:28.338Z,63.52
2023-05-23T02:01:14.590Z,63.29
2023-05-23T02:04:00.340Z,63.69
2023-05-23T02:06:46.658Z,63.73
2023-05-23T02:09:32.155Z,63.33
2023-05-23T02:12:17.914Z,63.22
2023-05-23T02:15:05.062Z,63.34
2023-05-23T02:17:51.512Z,63.29
2023-05-23T02:20:36.689Z,63.47
2023-05-23T02:23:23.046Z,64.32
2023-05-23T02:26:08.494Z,63.95
2023-05-23T02:28:55.081Z,64.29
2023-05-23T02:31:40.660Z,63.91
2023-05-23T02:34:26.296Z,65.15
2023-05-23T02:37:11.773Z,65.42
2023-05-23T02:39:57.206Z,65.42
2023-05-23T02:42:42.943Z,65.62
2023-05-23T02:45:28.207Z,65.27
2023-05-23T02:48:13.596Z,65.23
2023-05-23T02:50:59.544Z,65.29
2023-05-23T02:53:45.067Z,64.72
2023-05-23T02:56:31.021Z,64.82
2023-05-23T02:59:18.041Z,65.32
2023-05-23T03:02:03.701Z,65.43
2023-05-23T03:04:49.698Z,65.58
2023-05-23T03:07:35.036Z,65.74
2023-05-23T03:10:20.683Z,65.67
2023-05-23T03:13:06.269Z,65.88
2023-05-23T03:15:51.776Z,66.17
2023-05-23T03:18:37.524Z,66.29
2023-05-23T03:21:22.922Z,66.85
2023-05-23T03:24:08.555Z,67.38
2023-05-23T03:26:54.209Z,67.09
2023-05-23T03:29:40.013Z,67.80
2023-05-23T03:32:25.700Z,67.29
2023-05-23T03:35:11.605Z,67.08
2023-05-23T03:37:57.670Z,66.95
2023-05-23T03:40:43.025Z,66.96
2023-05-23T03:43:28.538Z,67.23
2023-05-23T03:46:14.034Z,67.80
2023-05-23T03:49:00.964Z,67.48
2023-05-23T03:51:47.940Z,67.35
2023-05-23T03:54:34.811Z,67.75
2023-05-23T03:57:20.239Z,68.01
2023-05-23T04:00:12.068Z,67.88
2023-05-23T04:03:02.093Z,68.03
2023-05-23T04:05:49.661Z,67.67
2023-05-23T04:08:35.635Z,67.40
2023-05-23T04:11:22.596Z,66.90
2023-05-23T04:14:09.432Z,66.90
2023-05-23T04:16:56.845Z,66.92
2023-05-23T04:19:42.684Z,66.79
2023-05-23T04:22:28.477Z,66.76
2023-05-23T04:25:13.897Z,66.48
2023-05-23T04:28:06.725Z,66.67
2023-05-23T04:30:53.579Z,66.28
2023-05-23T04:33:43.366Z,65.01
2023-05-23T04:36:30.351Z,65.11
2023-05-23T04:39:16.551Z,64.84
2023-05-23T04:42:17.601Z,64.92
2023-05-23T04:45:19.610Z,64.46
2023-05-23T04:48:17.341Z,65.05
2023-05-23T04:51:08.561Z,64.66
2023-05-23T04:53:58.755Z,63.53
2023-05-23T04:56:44.687Z,63.10
2023-05-23T04:59:30.001Z,62.72
2023-05-23T05:02:15.451Z,62.28
2023-05-23T05:05:01.271Z,62.45
2023-05-23T05:07:48.052Z,60.12
2023-05-23T05:10:33.425Z,58.59
2023-05-23T05:13:19.219Z,56.44
2023-05-23T05:16:08.331Z,56.03
2023-05-23T05:18:55.876Z,54.98
2023-05-23T05:21:41.492Z,54.40
2023-05-23T05:24:28.018Z,53.08
2023-05-23T05:27:13.420Z,52.64
2023-05-23T05:30:04.190Z,51.65
2023-05-23T05:32:51.912Z,51.34
2023-05-23T05:35:38.849Z,50.05
2023-05-23T05:38:52.071Z,48.28
2023-05-23T05:41:42.957Z,48.21
2023-05-23T05:44:33.993Z,47.13
2023-05-23T05:47:22.636Z,47.58
2023-05-23T05:50:23.696Z,46.68
2023-05-23T05:53:22.797Z,46.45
2023-05-23T05:56:28.228Z,46.33
2023-05-23T05:59:35.544Z,46.21
2023-05-23T06:02:21.443Z,45.36
2023-05-23T06:05:10.546Z,45.35
2023-05-23T06:07:55.853Z,44.46
2023-05-23T06:10:42.165Z,44.65
2023-05-23T06:13:28.830Z,44.51
2023-05-23T06:16:15.374Z,44.03
2023-05-23T06:19:03.445Z,42.97
2023-05-23T06:21:53.366Z,44.17
2023-05-23T06:24:57.125Z,44.64
2023-05-23T06:27:47.014Z,44.11
2023-05-23T06:30:51.295Z,43.52
2023-05-23T06:33:39.661Z,44.33
2023-05-23T06:36:25.436Z,44.65
2023-05-23T06:39:13.689Z,44.76
2023-05-23T06:42:02.649Z,42.98
2023-05-23T06:45:04.269Z,43.23
2023-05-23T06:48:04.969Z,42.57
2023-05-23T06:50:58.595Z,43.54
2023-05-23T06:53:45.054Z,43.16
2023-05-23T06:56:31.027Z,41.75
2023-05-23T06:59:23.414Z,40.41
2023-05-23T07:02:12.912Z,41.42
2023-05-23T07:04:59.624Z,39.74
2023-05-23T07:08:07.520Z,39.79
2023-05-23T07:10:52.994Z,39.90
2023-05-23T07:14:00.458Z,39.77
2023-05-23T07:16:59.397Z,39.42
2023-05-23T07:19:46.611Z,37.69
2023-05-23T07:22:35.849Z,37.85
2023-05-23T07:25:28.324Z,38.05
2023-05-23T07:28:14.196Z,37.48
2023-05-23T07:31:04.021Z,36.53
2023-05-23T07:33:50.733Z,36.55
2023-05-23T07:36:44.377Z,36.57
2023-05-23T07:44:41.927Z,36.25
2023-05-23T07:47:28.667Z,34.68
2023-05-23T07:50:13.963Z,33.88
2023-05-23T07:52:59.171Z,34.79
2023-05-23T07:55:48.972Z,33.77
2023-05-23T07:58:34.996Z,33.35
2023-05-23T08:01:20.358Z,32.95
2023-05-23T08:05:00.138Z,32.13
2023-05-23T08:08:41.743Z,31.65
2023-05-23T08:12:01.235Z,32.50
2023-05-23T08:14:53.935Z,32.81
2023-05-23T08:17:58.205Z,30.57
2023-05-23T08:20:49.790Z,29.64
2023-05-23T08:23:40.876Z,30.79
2023-05-23T08:26:30.463Z,30.69
2023-05-23T08:29:17.084Z,31.06
2023-05-23T08:32:04.350Z,32.01
2023-05-23T08:34:51.400Z,31.72
2023-05-23T08:37:37.613Z,31.66
2023-05-23T09:03:46.570Z,31.22
2023-05-23T09:06:59.507Z,31.71
2023-05-23T09:09:45.292Z,31.37
2023-05-23T09:12:34.399Z,30.54
2023-05-23T09:15:20.337Z,31.37
2023-05-23T09:18:06.072Z,31.84
2023-05-23T09:20:53.133Z,32.51
2023-05-23T09:23:40.788Z,31.95
2023-05-23T09:26:28.266Z,31.61
2023-05-23T09:29:14.448Z,31.47
2023-05-23T09:32:12.844Z,31.57
2023-05-23T09:35:04.193Z,31.72
2023-05-23T09:37:49.835Z,30.89
2023-05-23T09:40:35.474Z,31.19
2023-05-23T09:43:22.826Z,31.84
2023-05-23T09:46:11.389Z,31.09
2023-05-23T09:48:57.191Z,31.15
2023-05-23T09:51:43.458Z,32.17
2023-05-23T09:54:29.042Z,31.29
2023-05-23T09:57:16.914Z,31.50
2023-05-23T10:00:06.702Z,31.50
2023-05-23T10:03:08.361Z,30.95
2023-05-23T10:05:59.982Z,31.40
2023-05-23T10:08:50.370Z,30.03
2023-05-23T10:11:57.049Z,30.30
2023-05-23T10:14:47.828Z,31.29
2023-05-23T10:17:44.492Z,31.40
2023-05-23T10:20:32.223Z,31.28
2023-05-23T10:23:18.279Z,30.50
2023-05-23T10:26:05.544Z,31.28
2023-05-23T10:28:52.088Z,30.10
2023-05-23T10:31:38.180Z,30.93
2023-05-23T10:34:36.707Z,29.77
2023-05-23T10:37:44.781Z,30.18
2023-05-23T10:40:57.201Z,30.99
2023-05-23T10:43:57.705Z,30.57
2023-05-23T10:46:58.960Z,31.51
2023-05-23T10:50:04.957Z,31.40
2023-05-23T10:52:54.500Z,30.45
2023-05-23T10:56:04.168Z,29.39
2023-05-23T10:58:55.478Z,30.23
2023-05-23T11:01:45.128Z,30.01
2023-05-23T11:04:42.453Z,29.50
2023-05-23T11:07:34.993Z,29.22
2023-05-23T11:10:48.690Z,28.61
2023-05-23T11:14:00.555Z,28.44
2023-05-23T11:16:49.851Z,28.09
2023-05-23T11:19:37.136Z,29.35
2023-05-23T11:22:33.427Z,29.92
2023-05-23T11:25:42.283Z,28.86
2023-05-23T11:28:27.537Z,29.39
2023-05-23T11:31:13.175Z,28.22
2023-05-23T11:33:58.585Z,28.53
2023-05-23T11:36:43.992Z,27.71
2023-05-23T11:39:29.315Z,27.89
2023-05-23T11:42:14.709Z,27.86
2023-05-23T11:45:00.028Z,28.56
2023-05-23T11:47:45.565Z,28.54
2023-05-23T11:50:31.350Z,28.57
2023-05-23T11:53:20.626Z,28.66
2023-05-23T11:56:10.206Z,30.31
2023-05-23T11:58:57.630Z,29.86
2023-05-23T12:01:44.000Z,28.78
2023-05-23T12:04:29.982Z,28.37
2023-05-23T12:07:19.121Z,28.30
2023-05-23T12:10:05.078Z,28.24
2023-05-23T12:12:55.482Z,29.13
2023-05-23T12:15:41.266Z,29.22
2023-05-23T12:18:33.315Z,28.95
2023-05-23T12:21:19.655Z,29.15
2023-05-23T12:24:20.076Z,28.90
2023-05-23T12:27:10.638Z,28.86
2023-05-23T12:30:18.389Z,29.03
2023-05-23T12:33:21.963Z,29.35
2023-05-23T12:36:07.679Z,29.10
2023-05-23T12:38:54.214Z,29.03
2023-05-23T12:41:46.228Z,30.04
2023-05-23T12:44:43.600Z,29.70
2023-05-23T12:47:35.166Z,29.02
2023-05-23T12:50:26.226Z,29.60
2023-05-23T12:53:29.077Z,28.87
2023-05-23T12:56:23.935Z,28.73
2023-05-23T12:59:10.159Z,29.18
2023-05-23T13:01:58.410Z,28.56
2023-05-23T13:04:49.855Z,29.15
2023-05-23T13:07:35.596Z,28.94
2023-05-23T13:10:24.128Z,29.01
2023-05-23T13:13:11.279Z,28.13
2023-05-23T13:15:56.679Z,28.41
2023-05-23T13:18:42.228Z,28.39
2023-05-23T13:21:27.807Z,27.85
2023-05-23T13:24:25.836Z,27.66
2023-05-23T13:27:20.949Z,28.06
2023-05-23T13:30:14.260Z,27.78
2023-05-23T13:33:00.506Z,27.58
2023-05-23T13:35:51.732Z,27.73
2023-05-23T13:38:45.614Z,27.63
2023-05-23T13:41:31.351Z,27.78
2023-05-23T13:44:22.386Z,28.01
2023-05-23T13:47:20.549Z,27.80
2023-05-23T13:50:07.410Z,28.40
2023-05-23T13:52:53.039Z,28.71
2023-05-23T13:55:45.300Z,28.17
2023-05-23T13:58:36.623Z,27.95
2023-05-23T14:01:22.396Z,27.26
2023-05-23T14:04:11.154Z,27.41
2023-05-23T14:07:01.665Z,28.21
2023-05-23T14:09:52.070Z,28.01
2023-05-23T14:12:57.062Z,28.38
2023-05-23T14:15:54.229Z,28.37
2023-05-23T14:18:48.194Z,28.17
2023-05-23T14:21:38.714Z,28.00
2023-05-23T14:24:27.769Z,28.56
2023-05-23T14:27:14.869Z,28.34
2023-05-23T14:30:03.499Z,27.69
2023-05-23T14:32:52.931Z,27.99
2023-05-23T14:35:40.357Z,28.29
2023-05-23T14:38:28.814Z,27.39
2023-05-23T14:41:22.900Z,27.63
2023-05-23T14:44:23.864Z,27.19
2023-05-23T14:47:12.057Z,27.54
2023-05-23T14:50:07.418Z,27.22
2023-05-23T14:52:59.668Z,27.98
2023-05-23T14:55:49.001Z,27.65
2023-05-23T14:58:37.778Z,27.63
2023-05-23T15:01:33.104Z,27.80
2023-05-23T15:04:21.246Z,27.40
2023-05-23T15:07:07.984Z,27.80
2023-05-23T15:10:03.707Z,27.76
2023-05-23T15:12:52.131Z,27.66
2023-05-23T15:15:41.977Z,27.36
2023-05-23T15:18:41.253Z,27.64
2023-05-23T15:21:32.519Z,27.65
2023-05-23T15:24:21.335Z,27.65
2023-05-23T15:27:19.422Z,27.77
2023-05-23T15:30:12.018Z,28.28
2023-05-23T15:33:01.780Z,28.16
2023-05-23T15:35:47.738Z,28.29
2023-05-23T15:38:36.476Z,28.55
2023-05-23T15:41:24.737Z,28.81
2023-05-23T15:44:17.831Z,28.01
2023-05-23T15:47:08.632Z,28.70
2023-05-23T15:49:56.495Z,28.10
2023-05-23T15:52:55.939Z,28.50
2023-05-23T15:55:44.345Z,28.37
2023-05-23T15:58:31.661Z,29.21
2023-05-23T16:01:22.831Z,29.71
2023-05-23T16:04:16.898Z,29.37
2023-05-23T16:07:13.573Z,28.95
2023-05-23T16:10:03.921Z,29.62
2023-05-23T16:12:49.452Z,28.94
2023-05-23T16:15:35.438Z,29.41
2023-05-23T16:18:22.716Z,29.85
2023-05-23T16:21:09.439Z,29.47
2023-05-23T16:23:54.880Z,29.22
2023-05-23T16:26:40.725Z,29.26
2023-05-23T16:29:28.330Z,28.67
2023-05-23T16:32:15.604Z,28.91
2023-05-23T16:35:01.504Z,29.54
2023-05-23T16:37:47.034Z,29.33
2023-05-23T16:40:32.281Z,30.03
2023-05-23T16:43:17.597Z,30.16
2023-05-23T16:46:07.441Z,31.07
2023-05-23T16:48:56.079Z,31.12
2023-05-23T16:51:42.227Z,30.64
2023-05-23T16:54:33.261Z,30.71
2023-05-23T16:57:18.779Z,31.31
2023-05-23T17:00:08.081Z,31.56
2023-05-23T17:02:56.448Z,31.52
2023-05-23T17:05:42.676Z,32.16
2023-05-23T17:08:34.721Z,32.38
2023-05-23T17:11:23.036Z,32.90
2023-05-23T17:14:09.502Z,32.76
2023-05-23T17:16:57.605Z,33.49
2023-05-23T17:19:43.385Z,33.02
2023-05-23T17:22:29.306Z,33.26
2023-05-23T17:25:17.566Z,33.63
2023-05-23T17:28:03.153Z,33.85
2023-05-23T17:30:48.574Z,33.87
2023-05-23T17:33:35.508Z,33.86
2023-05-23T17:36:21.109Z,33.73
2023-05-23T17:39:07.228Z,33.69
2023-05-23T17:41:53.248Z,33.99
2023-05-23T17:44:38.963Z,33.62
2023-05-23T17:47:24.625Z,33.73
2023-05-23T17:50:11.339Z,33.41
2023-05-23T17:52:57.365Z,33.58
2023-05-23T17:55:43.092Z,33.19
2023-05-23T17:58:28.441Z,33.18
2023-05-23T18:01:14.492Z,33.39
2023-05-23T18:04:01.390Z,33.34
2023-05-23T18:06:46.979Z,33.24
2023-05-23T18:09:32.887Z,33.37
2023-05-23T18:12:18.912Z,33.30
2023-05-23T18:15:05.688Z,34.61
2023-05-23T18:17:58.083Z,35.50
2023-05-23T18:20:44.102Z,35.91
2023-05-23T18:23:30.116Z,36.29
2023-05-23T18:26:16.200Z,36.67
2023-05-23T18:29:02.911Z,36.24
2023-05-23T18:31:49.115Z,36.77
2023-05-23T18:34:36.551Z,37.19
2023-05-23T18:37:22.261Z,37.22
2023-05-23T18:40:09.653Z,37.75
2023-05-23T18:42:55.688Z,37.90
2023-05-23T18:45:42.184Z,38.17
2023-05-23T18:48:27.779Z,38.67
2023-05-23T18:51:13.434Z,38.75
2023-05-23T18:53:58.674Z,39.44
2023-05-23T18:56:44.147Z,39.67
2023-05-23T18:59:29.390Z,39.69
2023-05-23T19:02:14.964Z,40.22
2023-05-23T19:05:02.109Z,41.08
2023-05-23T19:07:50.273Z,42.69
2023-05-23T19:10:38.971Z,43.61
2023-05-23T19:13:25.938Z,45.62
2023-05-23T19:16:12.061Z,46.21
2023-05-23T19:18:59.403Z,46.23
2023-05-23T19:21:52.100Z,46.69
2023-05-23T19:24:41.142Z,45.62
2023-05-23T19:27:30.678Z,46.29
2023-05-23T19:30:19.418Z,46.53
2023-05-23T19:33:05.687Z,47.34
2023-05-23T19:35:51.743Z,47.20
2023-05-23T19:38:39.623Z,47.57
2023-05-23T19:41:25.401Z,48.12
2023-05-23T19:44:11.957Z,48.40
2023-05-23T19:46:57.543Z,48.40
2023-05-23T19:49:43.089Z,48.23
2023-05-23T19:52:32.425Z,48.35
2023-05-23T19:55:23.432Z,48.74
2023-05-23T19:58:09.959Z,49.22
2023-05-23T20:00:56.258Z,49.10
2023-05-23T20:03:42.106Z,49.27
2023-05-23T20:06:28.514Z,49.59
2023-05-23T20:09:21.813Z,49.99
2023-05-23T20:15:52.709Z,51.17
2023-05-23T20:18:43.721Z,51.02
2023-05-23T20:21:32.037Z,50.96
2023-05-23T20:24:27.179Z,51.22
2023-05-23T20:27:16.134Z,51.00
2023-05-23T20:30:02.052Z,51.28
2023-05-23T20:32:48.534Z,51.87
2023-05-23T20:35:34.708Z,52.12
2023-05-23T20:38:20.463Z,52.18
2023-05-23T20:41:07.694Z,52.12
2023-05-23T20:43:53.356Z,52.31
2023-05-23T20:46:41.915Z,51.76
2023-05-23T20:49:27.864Z,52.17
2023-05-23T20:52:13.112Z,52.69
2023-05-23T20:54:58.656Z,53.18
2023-05-23T20:57:43.997Z,53.85
2023-05-23T21:00:30.108Z,54.07
2023-05-23T21:03:15.586Z,54.25
2023-05-23T21:06:00.973Z,54.82
2023-05-23T21:08:46.329Z,54.78
2023-05-23T21:11:31.739Z,55.31
2023-05-23T21:14:17.404Z,55.53
2023-05-23T21:17:03.496Z,55.89
2023-05-23T21:19:49.300Z,55.97
2023-05-23T21:22:34.767Z,56.12
2023-05-23T21:25:20.533Z,56.45
2023-05-23T21:28:05.944Z,56.45
2023-05-23T21:30:51.596Z,56.27
2023-05-23T21:33:36.889Z,56.28
2023-05-23T21:36:22.254Z,56.50
2023-05-23T21:39:07.486Z,56.53
2023-05-23T21:41:52.779Z,56.87
2023-05-23T21:44:39.536Z,57.52
2023-05-23T21:47:27.042Z,57.42
2023-05-23T21:50:12.525Z,58.11
2023-05-23T21:52:58.339Z,58.74
2023-05-23T21:55:44.020Z,59.00
2023-05-23T21:58:29.395Z,58.90
2023-05-23T22:01:14.665Z,58.52
2023-05-23T22:04:00.488Z,58.45
2023-05-23T22:06:46.691Z,58.51
2023-05-23T22:09:32.276Z,58.34
2023-05-23T22:12:19.557Z,58.33
2023-05-23T22:15:07.235Z,58.42
2023-05-23T22:17:57.668Z,58.83
2023-05-23T22:20:43.588Z,58.87
2023-05-23T22:23:29.330Z,58.96
2023-05-23T22:26:14.706Z,59.23
2023-05-23T22:29:00.421Z,58.95
2023-05-23T22:31:47.558Z,58.54
2023-05-23T22:34:37.188Z,58.22
2023-05-23T22:37:22.956Z,58.37
2023-05-23T22:40:10.270Z,58.40
2023-05-23T22:42:55.658Z,58.66
2023-05-23T22:45:42.523Z,59.16
2023-05-23T22:48:33.744Z,58.97
2023-05-23T22:51:20.005Z,59.45
2023-05-23T22:54:06.005Z,59.08
2023-05-23T22:56:51.345Z,59.07
2023-05-23T22:59:36.901Z,59.14
2023-05-23T23:02:22.383Z,59.11
2023-05-23T23:05:10.359Z,58.98
2023-05-23T23:07:56.377Z,58.81
2023-05-23T23:10:42.029Z,58.67
2023-05-23T23:13:28.072Z,58.44
2023-05-23T23:16:13.324Z,58.52
2023-05-23T23:18:58.840Z,57.94
2023-05-23T23:21:44.091Z,58.09
2023-05-23T23:24:35.782Z,57.04
2023-05-23T23:27:25.171Z,56.35
2023-05-23T23:30:11.043Z,56.76
2023-05-23T23:32:56.276Z,56.47
2023-05-23T23:35:41.758Z,56.50
2023-05-23T23:38:27.266Z,55.17
2023-05-23T23:41:12.675Z,54.31
2023-05-23T23:43:57.957Z,53.25
2023-05-23T23:46:43.264Z,53.50
2023-05-23T23:49:28.694Z,52.17
2023-05-23T23:52:14.358Z,52.05
2023-05-23T23:54:59.853Z,52.26
2023-05-23T23:57:45.822Z,51.85
